Time;durP1;ratioP1;P1;durP2;ratioP2;P2;SDS_P1;SDS_P2;PMS_P1;PMS_P2;Temp;Humidity;BMP_temperature;BMP_pressure;BME280_temperature;BME280_humidity;BME280_pressure;Samples;Min_cycle;Max_cycle;Signal;HPM_P1;HPM_P2
2022/12/17 13:05:59;;;;;;;;;;;;;;;-3.56;81.15;100063.22;5060780;28;19935;-66
2022/12/17 13:08:25;;;;;;;;;;;;;;;-3.53;80.96;100055.84;5086797;28;19929;-67
2022/12/17 13:10:52;;;;;;;;;;;;;;;-3.56;80.96;100051.69;5065696;28;19984;-67
2022/12/17 13:13:29;;;;;;;;;;;;;;;-3.57;80.86;100055.38;5082893;28;20403;-66
2022/12/17 13:15:58;;;;;;;;;;;;;;;-3.61;80.93;100046.03;5079395;28;19971;-66
2022/12/17 13:18:30;;;;;;;;;;;;;;;-3.62;80.77;100055.06;5079430;28;19934;-66
2022/12/17 13:20:58;;;;;;;;;;;;;;;-3.54;81.15;100051.53;5061578;28;19936;-67
2022/12/17 13:23:26;;;;;;;;;;;;;;;-3.54;80.89;100044.31;5078325;28;20523;-66
2022/12/17 13:26:02;;;;;;;;;;;;;;;-3.54;80.82;100046.19;5084152;28;19932;-67
2022/12/17 13:28:29;;;;;;;;;;;;;;;-3.60;80.79;100045.84;5081670;28;19973;-67
2022/12/17 13:31:13;;;;;;;;;;;;;;;-3.57;81.11;100053.53;5084848;28;19928;-66
2022/12/17 13:33:49;;;;;;;;;;;;;;;-3.54;81.02;100054.19;5062802;28;20417;-67
2022/12/17 13:36:20;;;;;;;;;;;;;;;-3.52;80.63;100057.53;5085034;28;20445;-66
2022/12/17 13:38:51;;;;;;;;;;;;;;;-3.53;80.89;100063.88;5065630;28;19935;-66
2022/12/17 13:41:18;;;;;;;;;;;;;;;-3.48;80.96;100067.69;5081731;28;19989;-66
2022/12/17 13:43:45;;;;;;;;;;;;;;;-3.46;80.59;100048.78;5084696;28;19959;-66
2022/12/17 13:46:20;;;;;;;;;;;;;;;-3.45;80.53;100040.59;5085643;28;19971;-66
2022/12/17 13:48:51;;;;;;;;;;;;;;;-3.45;80.63;100032.56;5081288;28;19935;-66
2022/12/17 13:51:18;;;;;;;;;;;;;;;-3.46;80.53;100024.72;5061814;28;19951;-66
2022/12/17 13:53:50;;;;;;;;;;;;;;;-3.52;80.72;100028.94;5084058;28;20356;-66
2022/12/17 13:56:20;;;;;;;;;;;;;;;-3.47;80.52;100015.03;5082522;28;19947;-66
2022/12/17 13:58:49;;;;;;;;;;;;;;;-3.48;80.53;100018.72;5061535;28;19935;-66
2022/12/17 14:01:15;;;;;;;;;;;;;;;-3.51;80.42;100011.06;5063319;28;19935;-66
2022/12/17 14:03:47;;;;;;;;;;;;;;;-3.53;80.46;100008.56;5080389;28;20342;-66
2022/12/17 14:06:14;;;;;;;;;;;;;;;-3.49;80.54;100001.00;5060810;28;19928;-66
2022/12/17 14:08:41;;;;;;;;;;;;;;;-3.49;80.41;100001.88;5063599;28;19974;-67
2022/12/17 14:13:54;;;;;;;;;;;;;;;-3.47;80.59;99999.84;5060052;28;19981;-66
2022/12/17 14:16:21;;;;;;;;;;;;;;;-3.44;80.73;99999.47;5060181;28;19939;-67
2022/12/17 14:18:49;;;;;;;;;;;;;;;-3.43;80.80;99995.78;5062548;28;19927;-67
2022/12/17 14:21:15;;;;;;;;;;;;;;;-3.44;80.44;100004.81;5078397;28;19928;-67
2022/12/17 14:23:41;;;;;;;;;;;;;;;-3.47;80.32;100004.34;5098382;28;20299;-66
2022/12/17 14:26:08;;;;;;;;;;;;;;;-3.48;80.41;99998.19;5065973;28;19928;-66
2022/12/17 14:28:35;;;;;;;;;;;;;;;-3.52;80.56;100007.53;5066481;28;19963;-66
2022/12/17 14:31:04;;;;;;;;;;;;;;;-3.44;80.58;100014.69;5066922;28;19981;-66
2022/12/17 14:33:31;;;;;;;;;;;;;;;-3.46;80.58;100017.53;5082987;28;19928;-66
2022/12/17 14:35:59;;;;;;;;;;;;;;;-3.48;80.41;100014.22;5081223;28;19928;-66
2022/12/17 14:38:26;;;;;;;;;;;;;;;-3.51;80.62;100006.56;5083574;28;19928;-67
2022/12/17 14:40:52;;;;;;;;;;;;;;;-3.49;80.63;100004.53;5077516;28;19934;-66
2022/12/17 14:43:22;;;;;;;;;;;;;;;-3.46;80.64;100014.88;5080151;28;20027;-66
2022/12/17 14:46:33;;;;;;;;;;;;;;;-3.46;80.59;100014.88;5082155;28;20219;-66
2022/12/17 14:51:22;;;;;;;;;;;;;;;-3.45;80.64;100002.31;5079444;28;20406;-66
2022/12/17 14:53:48;;;;;;;;;;;;;;;-3.46;80.70;99990.81;5079972;28;19936;-66
2022/12/17 14:56:20;;;;;;;;;;;;;;;-3.49;80.44;100003.69;5081313;28;19976;-67
2022/12/17 14:58:46;;;;;;;;;;;;;;;-3.49;80.63;99998.34;5082841;28;20406;-66
2022/12/17 15:01:12;;;;;;;;;;;;;;;-3.46;80.66;99995.31;5083931;28;19936;-66
2022/12/17 15:03:39;;;;;;;;;;;;;;;-3.42;80.49;99993.97;5046512;28;19928;-66
2022/12/17 15:06:06;;;;;;;;;;;;;;;-3.45;80.70;99979.09;5081543;28;20395;-66
2022/12/17 15:08:35;;;;;;;;;;;;;;;-3.46;80.48;99966.75;5083317;28;19939;-66
2022/12/17 15:11:01;;;;;;;;;;;;;;;-3.48;80.59;99957.22;5065162;28;19927;-66
2022/12/17 15:13:27;;;;;;;;;;;;;;;-3.48;80.56;99949.19;5065067;28;19981;-66
2022/12/17 15:15:52;;;;;;;;;;;;;;;-3.50;80.37;99938.69;5080459;28;19936;-66
2022/12/17 15:18:18;;;;;;;;;;;;;;;-3.56;80.43;99945.59;5060312;28;19932;-66
2022/12/17 15:20:44;;;;;;;;;;;;;;;-3.56;80.50;99934.91;5067196;28;20406;-66
2022/12/17 15:23:14;;;;;;;;;;;;;;;-3.58;80.58;99931.56;5085613;28;20392;-66
2022/12/17 15:25:41;;;;;;;;;;;;;;;-3.61;80.65;99941.78;5083275;28;20377;-66
2022/12/17 15:28:08;;;;;;;;;;;;;;;-3.63;80.62;99946.47;5077461;28;20027;-66
2022/12/17 15:30:34;;;;;;;;;;;;;;;-3.65;80.65;99932.47;5079946;28;19928;-66
2022/12/17 15:32:59;;;;;;;;;;;;;;;-3.68;80.59;99930.97;5083104;28;19928;-66
2022/12/17 15:35:25;;;;;;;;;;;;;;;-3.68;80.45;99914.94;5079854;28;20411;-66
2022/12/17 15:37:51;;;;;;;;;;;;;;;-3.72;80.63;99898.41;5043871;28;19932;-66
2022/12/17 15:40:17;;;;;;;;;;;;;;;-3.70;80.57;99914.28;5082448;28;19932;-66
2022/12/17 15:45:29;;;;;;;;;;;;;;;-3.78;80.77;99925.88;5084196;28;20022;-66
2022/12/17 15:47:55;;;;;;;;;;;;;;;-3.82;80.62;99929.06;5081387;28;20409;-65
2022/12/17 15:50:21;;;;;;;;;;;;;;;-3.82;80.74;99934.41;5083676;28;20019;-66
2022/12/17 15:52:46;;;;;;;;;;;;;;;-3.82;80.75;99935.25;5084277;28;20019;-66
2022/12/17 15:55:12;;;;;;;;;;;;;;;-3.82;80.66;99935.25;5083251;28;19974;-67
2022/12/17 15:57:39;;;;;;;;;;;;;;;-3.81;80.72;99931.56;5078756;28;19931;-67
2022/12/17 16:00:07;;;;;;;;;;;;;;;-3.73;80.74;99925.34;5080352;28;20005;-66
2022/12/17 16:02:34;;;;;;;;;;;;;;;-3.77;80.68;99935.53;5079201;28;19928;-66
2022/12/17 16:04:59;;;;;;;;;;;;;;;-3.71;80.62;99960.72;5077329;28;19928;-68
2022/12/17 16:07:25;;;;;;;;;;;;;;;-3.70;80.95;99973.91;5061901;28;19928;-66
2022/12/17 16:09:51;;;;;;;;;;;;;;;-3.67;80.79;99967.38;5081404;28;19932;-66
2022/12/17 16:12:17;;;;;;;;;;;;;;;-3.60;80.81;99949.59;5082917;28;19935;-66
2022/12/17 16:14:42;;;;;;;;;;;;;;;-3.62;80.48;99938.28;5081048;28;20011;-69
2022/12/17 16:17:10;;;;;;;;;;;;;;;-3.59;80.71;99945.09;5054595;28;20018;-68
2022/12/17 16:19:36;;;;;;;;;;;;;;;-3.55;80.59;99943.72;5084425;28;20035;-69
2022/12/17 16:22:01;;;;;;;;;;;;;;;-3.60;80.45;99946.94;5081189;28;20588;-69
2022/12/17 16:24:27;;;;;;;;;;;;;;;-3.59;80.53;99956.66;5080151;28;20022;-69
2022/12/17 16:26:53;;;;;;;;;;;;;;;-3.59;80.51;99961.16;5081810;28;19973;-69
2022/12/17 16:29:19;;;;;;;;;;;;;;;-3.60;80.45;99948.78;5081822;28;20260;-69
2022/12/17 16:31:45;;;;;;;;;;;;;;;-3.62;80.40;99924.91;5077776;28;19932;-69
2022/12/17 16:34:12;;;;;;;;;;;;;;;-3.57;80.59;99911.00;5078849;28;19943;-69
2022/12/17 16:36:38;;;;;;;;;;;;;;;-3.61;80.13;99931.09;5079037;28;19934;-69
2022/12/17 16:39:04;;;;;;;;;;;;;;;-3.65;80.23;99946.66;5081934;28;19928;-69
2022/12/17 16:41:30;;;;;;;;;;;;;;;-3.71;80.42;99934.00;5081544;28;19928;-69
2022/12/17 16:43:56;;;;;;;;;;;;;;;-3.76;80.33;99921.19;5080982;28;20413;-71
2022/12/17 16:46:22;;;;;;;;;;;;;;;-3.82;80.50;99913.88;5077114;28;19928;-69
2022/12/17 16:48:48;;;;;;;;;;;;;;;-3.94;80.68;99891.25;5062676;28;19928;-68
2022/12/17 16:51:16;;;;;;;;;;;;;;;-3.90;80.72;99906.75;5082537;28;19974;-68
2022/12/17 16:53:43;;;;;;;;;;;;;;;-3.78;80.89;99923.19;5078786;28;19928;-68
2022/12/17 16:56:13;;;;;;;;;;;;;;;-3.75;80.73;99936.19;5065729;28;19970;-69
2022/12/17 16:58:39;;;;;;;;;;;;;;;-3.80;80.68;99943.94;5082274;28;20014;-68
2022/12/17 17:01:05;;;;;;;;;;;;;;;-3.82;81.14;99940.59;5065923;28;20332;-69
2022/12/17 17:03:30;;;;;;;;;;;;;;;-3.82;80.91;99940.59;5083391;28;19935;-69
2022/12/17 17:05:58;;;;;;;;;;;;;;;-3.83;81.12;99932.75;5085693;28;20462;-69
2022/12/17 17:08:26;;;;;;;;;;;;;;;-3.83;81.03;99930.06;5084853;28;19928;-68
2022/12/17 17:10:51;;;;;;;;;;;;;;;-3.81;81.31;99925.38;5084833;28;20387;-69
2022/12/17 17:13:17;;;;;;;;;;;;;;;-3.83;81.22;99916.72;5086484;28;19967;-69
2022/12/17 17:15:43;;;;;;;;;;;;;;;-3.89;81.17;99903.06;5067278;28;20034;-69
2022/12/17 17:18:09;;;;;;;;;;;;;;;-3.91;81.29;99899.72;5065448;28;19932;-69
2022/12/17 17:20:35;;;;;;;;;;;;;;;-3.87;81.54;99893.03;5085432;28;20284;-67
2022/12/17 17:23:01;;;;;;;;;;;;;;;-3.89;81.39;99865.66;5087066;28;19928;-69
2022/12/17 17:25:30;;;;;;;;;;;;;;;-3.92;81.28;99859.84;5084355;28;20019;-66
2022/12/17 17:27:55;;;;;;;;;;;;;;;-3.99;81.51;99857.84;4734349;28;10000732;-66
2022/12/17 17:30:21;;;;;;;;;;;;;;;-4.03;81.72;99843.19;5079777;28;19971;-67
2022/12/17 17:32:47;;;;;;;;;;;;;;;-4.02;81.95;99852.06;5076099;28;19928;-66
2022/12/17 17:35:13;;;;;;;;;;;;;;;-4.03;82.01;99842.38;5076204;28;19931;-66
2022/12/17 17:37:39;;;;;;;;;;;;;;;-4.05;82.04;99847.91;5055646;28;20418;-65
2022/12/17 17:40:05;;;;;;;;;;;;;;;-4.02;82.06;99855.53;5066025;28;19928;-66
2022/12/17 17:42:32;;;;;;;;;;;;;;;-4.02;82.05;99854.72;5083105;28;20349;-66
2022/12/17 17:44:59;;;;;;;;;;;;;;;-3.97;82.17;99848.84;5064262;28;19932;-66
2022/12/17 17:47:25;;;;;;;;;;;;;;;-3.89;81.94;99848.78;5084972;28;19943;-66
2022/12/17 17:49:51;;;;;;;;;;;;;;;-3.82;81.95;99849.75;5069345;28;19928;-66
2022/12/17 17:52:16;;;;;;;;;;;;;;;-3.85;81.76;99837.56;5085210;28;19931;-66
2022/12/17 17:54:42;;;;;;;;;;;;;;;-3.93;81.63;99832.28;5069181;28;19928;-66
2022/12/17 17:57:09;;;;;;;;;;;;;;;-3.93;81.89;99818.91;5087101;28;19985;-66
2022/12/17 17:59:34;;;;;;;;;;;;;;;-3.92;81.74;99820.56;5086502;28;19928;-66
2022/12/17 18:02:02;;;;;;;;;;;;;;;-3.92;81.92;99825.91;5082762;28;19928;-66
2022/12/17 18:04:27;;;;;;;;;;;;;;;-3.92;81.94;99811.75;5085438;28;20019;-66
2022/12/17 18:06:53;;;;;;;;;;;;;;;-3.96;81.86;99816.59;5064790;28;20019;-66
2022/12/17 18:09:19;;;;;;;;;;;;;;;-3.99;81.57;99828.47;5082800;28;20377;-66
2022/12/17 18:11:45;;;;;;;;;;;;;;;-4.00;82.03;99826.00;5081203;28;19935;-66
2022/12/17 18:14:11;;;;;;;;;;;;;;;-4.01;81.91;99837.69;5085688;28;19954;-66
2022/12/17 18:16:38;;;;;;;;;;;;;;;-4.12;81.39;99822.91;5067284;28;19968;-66
2022/12/17 18:19:06;;;;;;;;;;;;;;;-4.08;81.68;99834.06;5085826;28;20023;-65
2022/12/17 18:21:32;;;;;;;;;;;;;;;-4.03;82.05;99827.16;5079659;28;19936;-65
2022/12/17 18:23:59;;;;;;;;;;;;;;;-4.01;81.79;99819.00;5066261;28;19985;-65
2022/12/17 18:26:26;;;;;;;;;;;;;;;-3.97;81.99;99825.63;5089405;28;20418;-66
2022/12/17 18:28:52;;;;;;;;;;;;;;;-3.97;81.93;99825.63;5084824;28;20402;-65
2022/12/17 18:31:19;;;;;;;;;;;;;;;-3.96;82.14;99824.63;5082638;28;19970;-65
2022/12/17 18:33:46;;;;;;;;;;;;;;;-3.89;82.10;99828.25;5084737;28;20540;-66
2022/12/17 18:36:14;;;;;;;;;;;;;;;-3.94;82.04;99835.13;5083784;28;19932;-66
2022/12/17 18:38:40;;;;;;;;;;;;;;;-3.98;82.04;99840.00;5083353;28;20249;-65
2022/12/17 18:43:22;;;;;;;;;;;;;;;-4.03;82.25;99831.69;5084937;28;20322;-66
2022/12/17 18:43:55;;;;;;;;;;;;;;;-3.93;82.50;99832.28;5084643;28;19927;-66
2022/12/17 18:46:21;;;;;;;;;;;;;;;-3.89;82.18;99830.06;5080501;28;20604;-66
2022/12/17 18:48:47;;;;;;;;;;;;;;;-3.92;82.42;99827.78;5064317;28;19977;-66
2022/12/17 18:51:14;;;;;;;;;;;;;;;-3.94;82.35;99825.25;5077675;28;20670;-66
2022/12/17 18:53:40;;;;;;;;;;;;;;;-3.88;82.53;99819.22;5067102;28;19936;-66
2022/12/17 18:56:07;;;;;;;;;;;;;;;-3.83;82.31;99810.63;5085115;28;19935;-68
2022/12/17 18:58:33;;;;;;;;;;;;;;;-3.85;82.28;99808.16;5081368;28;19999;-66
2022/12/17 19:00:59;;;;;;;;;;;;;;;-3.82;82.51;99809.66;5064699;28;20313;-66
2022/12/17 19:03:25;;;;;;;;;;;;;;;-3.80;82.70;99804.13;5086775;28;20391;-66
2022/12/17 19:05:51;;;;;;;;;;;;;;;-3.89;82.59;99795.34;5088897;28;20043;-68
2022/12/17 19:08:21;;;;;;;;;;;;;;;-3.90;82.77;99789.19;5069642;28;19932;-68
2022/12/17 19:10:47;;;;;;;;;;;;;;;-3.88;82.88;99792.50;5083889;28;19935;-66
2022/12/17 19:13:13;;;;;;;;;;;;;;;-3.83;82.75;99788.44;5063557;28;19928;-68
2022/12/17 19:15:38;;;;;;;;;;;;;;;-3.81;82.83;99784.59;5085143;28;20404;-66
2022/12/17 19:18:04;;;;;;;;;;;;;;;-3.80;83.17;99778.25;5065473;28;20019;-66
2022/12/17 19:20:30;;;;;;;;;;;;;;;-3.82;82.96;99772.25;5047049;28;19956;-67
2022/12/17 19:22:55;;;;;;;;;;;;;;;-3.81;83.16;99765.03;5082408;28;19928;-66
2022/12/17 19:25:22;;;;;;;;;;;;;;;-3.82;83.16;99758.03;5081623;28;20306;-68
2022/12/17 19:27:48;;;;;;;;;;;;;;;-3.82;82.93;99756.22;5082510;28;19928;-68
2022/12/17 19:30:14;;;;;;;;;;;;;;;-3.89;82.91;99753.44;5064292;28;19935;-68
2022/12/17 19:32:41;;;;;;;;;;;;;;;-3.88;83.10;99760.44;5065543;28;19928;-66
2022/12/17 19:35:07;;;;;;;;;;;;;;;-3.91;83.10;99767.97;5082381;28;19935;-68
2022/12/17 19:37:32;;;;;;;;;;;;;;;-3.94;82.85;99768.34;5083858;28;20330;-69
2022/12/17 19:39:58;;;;;;;;;;;;;;;-3.93;83.10;99772.69;5083720;28;19928;-68
2022/12/17 19:42:26;;;;;;;;;;;;;;;-3.86;83.19;99765.59;5079924;28;19954;-68
2022/12/17 19:44:52;;;;;;;;;;;;;;;-3.85;83.10;99760.06;5081177;28;19955;-68
2022/12/17 19:47:18;;;;;;;;;;;;;;;-3.86;82.98;99749.56;5063958;28;19928;-69
2022/12/17 19:49:45;;;;;;;;;;;;;;;-3.88;83.01;99747.06;5082692;28;19928;-68
2022/12/17 19:52:11;;;;;;;;;;;;;;;-3.91;83.15;99751.94;5084605;28;20341;-69
2022/12/17 19:54:37;;;;;;;;;;;;;;;-3.93;83.21;99748.63;5067516;28;20055;-69
2022/12/17 19:57:03;;;;;;;;;;;;;;;-3.91;83.18;99744.75;5064178;28;20486;-66
2022/12/17 19:59:30;;;;;;;;;;;;;;;-3.89;83.11;99740.06;5063871;28;19933;-66
2022/12/17 20:01:56;;;;;;;;;;;;;;;-3.87;82.96;99731.84;5063608;28;20037;-67
2022/12/17 20:04:21;;;;;;;;;;;;;;;-3.91;83.17;99731.38;5062742;28;20029;-66
2022/12/17 20:06:47;;;;;;;;;;;;;;;-3.93;82.96;99727.25;5058066;28;19928;-66
2022/12/17 20:09:14;;;;;;;;;;;;;;;-3.93;82.86;99717.38;5085064;28;19928;-66
2022/12/17 20:11:42;;;;;;;;;;;;;;;-3.94;82.76;99709.56;5061821;28;20392;-66
2022/12/17 20:14:12;;;;;;;;;;;;;;;-3.97;82.56;99699.25;5081358;28;19932;-66
2022/12/17 20:16:40;;;;;;;;;;;;;;;-3.96;82.80;99700.91;5083662;28;19928;-66
2022/12/17 20:19:06;;;;;;;;;;;;;;;-3.96;82.74;99704.41;5083746;28;19928;-66
2022/12/17 20:21:32;;;;;;;;;;;;;;;-3.96;82.74;99687.56;5082372;28;19939;-67
2022/12/17 20:23:58;;;;;;;;;;;;;;;-3.99;82.53;99694.09;5082282;28;20418;-66
2022/12/17 20:26:24;;;;;;;;;;;;;;;-4.00;82.67;99698.56;5049340;28;19935;-66
2022/12/17 20:28:50;;;;;;;;;;;;;;;-4.02;82.78;99665.88;5064705;28;19928;-66
2022/12/17 20:31:16;;;;;;;;;;;;;;;-4.06;82.79;99669.09;5064239;28;20035;-65
2022/12/17 20:33:44;;;;;;;;;;;;;;;-4.10;83.07;99668.66;5086755;28;20361;-66
2022/12/17 20:36:11;;;;;;;;;;;;;;;-4.11;83.16;99661.66;5087339;28;20346;-66
2022/12/17 20:38:37;;;;;;;;;;;;;;;-4.11;83.08;99660.81;5067872;28;20027;-68
2022/12/17 20:41:07;;;;;;;;;;;;;;;-4.17;83.39;99652.53;5088107;28;20013;-66
2022/12/17 20:43:33;;;;;;;;;;;;;;;-4.17;83.62;99655.19;5086086;28;19939;-65
2022/12/17 20:46:00;;;;;;;;;;;;;;;-4.18;83.75;99650.00;5085808;28;19928;-66
2022/12/17 20:48:26;;;;;;;;;;;;;;;-4.18;83.77;99650.00;5087029;28;19992;-66
2022/12/17 20:50:53;;;;;;;;;;;;;;;-4.14;83.80;99644.13;5088336;28;20447;-66
2022/12/17 20:53:19;;;;;;;;;;;;;;;-4.11;83.82;99634.09;5087174;28;19928;-66
2022/12/17 20:55:45;;;;;;;;;;;;;;;-4.11;83.89;99623.41;5086850;28;20029;-66
2022/12/17 20:58:12;;;;;;;;;;;;;;;-4.08;83.89;99629.22;5082751;28;19928;-66
2022/12/17 21:00:38;;;;;;;;;;;;;;;-4.06;83.93;99621.00;5087490;28;20582;-66
2022/12/17 21:03:03;;;;;;;;;;;;;;;-4.09;83.98;99597.34;5084542;28;19961;-66
2022/12/17 21:05:29;;;;;;;;;;;;;;;-4.14;83.84;99601.41;5084725;28;19935;-67
2022/12/17 21:07:56;;;;;;;;;;;;;;;-4.18;83.99;99607.28;5067849;28;19967;-66
2022/12/17 21:10:22;;;;;;;;;;;;;;;-4.18;84.12;99605.47;5089387;28;19928;-67
2022/12/17 21:15:32;;;;;;;;;;;;;;;-4.21;84.37;99586.28;5087711;28;20646;-66
2022/12/17 21:17:57;;;;;;;;;;;;;;;-4.20;84.35;99586.13;5067165;28;19942;-66
2022/12/17 21:20:23;;;;;;;;;;;;;;;-4.18;84.41;99573.41;5086159;28;19928;-68
2022/12/17 21:22:49;;;;;;;;;;;;;;;-4.07;84.45;99558.75;5086119;28;19936;-69
2022/12/17 21:25:16;;;;;;;;;;;;;;;-4.14;84.27;99558.66;5087330;28;19928;-69
2022/12/17 21:27:43;;;;;;;;;;;;;;;-4.14;84.34;99541.81;5084148;28;19932;-68
2022/12/17 21:30:09;;;;;;;;;;;;;;;-4.17;84.65;99528.81;5049392;28;19932;-68
2022/12/17 21:32:35;;;;;;;;;;;;;;;-4.15;84.72;99527.63;5084560;28;19935;-68
2022/12/17 21:35:00;;;;;;;;;;;;;;;-4.20;84.50;99513.19;5066605;28;19928;-69
2022/12/17 21:37:26;;;;;;;;;;;;;;;-4.21;84.49;99507.03;5085406;28;19932;-69
2022/12/17 21:39:52;;;;;;;;;;;;;;;-4.19;84.45;99498.81;5067292;28;20283;-69
2022/12/17 21:45:04;;;;;;;;;;;;;;;-4.23;84.45;99484.19;5066302;28;20210;-69
2022/12/17 21:47:29;;;;;;;;;;;;;;;-4.23;84.54;99484.19;5086854;28;19935;-69
2022/12/17 21:49:55;;;;;;;;;;;;;;;-4.24;84.75;99485.19;5086623;28;20031;-66
2022/12/17 21:52:21;;;;;;;;;;;;;;;-4.21;84.82;99483.00;5086145;28;19928;-69
2022/12/17 21:54:47;;;;;;;;;;;;;;;-4.19;84.63;99470.28;5081200;28;19935;-67
2022/12/17 21:57:12;;;;;;;;;;;;;;;-4.23;84.63;99468.16;5083321;28;20328;-66
2022/12/17 21:59:42;;;;;;;;;;;;;;;-4.29;84.69;99464.38;5086306;28;19928;-66
2022/12/17 22:02:09;;;;;;;;;;;;;;;-4.35;85.03;99475.81;5068603;28;19928;-66
2022/12/17 22:04:34;;;;;;;;;;;;;;;-4.40;85.01;99473.69;5067576;28;20482;-65
2022/12/17 22:07:00;;;;;;;;;;;;;;;-4.39;85.08;99479.84;5065749;28;19932;-66
2022/12/17 22:09:26;;;;;;;;;;;;;;;-4.37;85.37;99480.50;5085130;28;19954;-66
2022/12/17 22:14:01;;;;;;;;;;;;;;;-4.33;85.06;99476.47;5085112;28;19935;-66
2022/12/17 22:14:37;;;;;;;;;;;;;;;-4.30;85.09;99466.22;5065850;28;19981;-66
2022/12/17 22:17:04;;;;;;;;;;;;;;;-4.32;85.09;99473.59;5088205;28;19928;-66
2022/12/17 22:19:30;;;;;;;;;;;;;;;-4.33;85.24;99463.13;5085779;28;20336;-65
2022/12/17 22:21:55;;;;;;;;;;;;;;;-4.36;85.17;99453.63;5089474;28;19971;-66
2022/12/17 22:24:21;;;;;;;;;;;;;;;-4.33;85.16;99447.91;5087814;28;19928;-66
2022/12/17 22:26:47;;;;;;;;;;;;;;;-4.34;85.19;99445.44;5068196;28;19974;-66
2022/12/17 22:32:58;;;;;;;;;;;;;;;-4.36;85.28;99434.94;5085943;28;20458;-66
2022/12/17 22:34:48;;;;;;;;;;;;;;;-4.35;85.26;99433.09;5086656;28;19939;-65
2022/12/17 22:37:13;;;;;;;;;;;;;;;-4.39;85.17;99427.31;5085352;28;19959;-65
2022/12/17 22:39:39;;;;;;;;;;;;;;;-4.41;85.37;99424.00;5084360;28;20057;-66
2022/12/17 22:44:49;;;;;;;;;;;;;;;-4.41;85.58;99400.78;5084564;28;19935;-65
2022/12/17 22:47:15;;;;;;;;;;;;;;;-4.44;85.65;99400.34;5066942;28;20399;-66
2022/12/17 22:49:40;;;;;;;;;;;;;;;-4.46;85.67;99395.19;5068441;28;19932;-66
2022/12/17 22:52:07;;;;;;;;;;;;;;;-4.48;86.04;99386.53;5085853;28;20359;-65
2022/12/17 22:54:33;;;;;;;;;;;;;;;-4.50;86.06;99375.22;5085459;28;19932;-66
2022/12/17 22:56:59;;;;;;;;;;;;;;;-4.47;86.13;99369.50;5084586;28;19981;-65
2022/12/17 22:59:24;;;;;;;;;;;;;;;-4.53;86.25;99362.22;5085155;28;19997;-65
2022/12/17 23:01:50;;;;;;;;;;;;;;;-4.59;86.34;99352.31;5050423;28;19927;-65
2022/12/17 23:04:16;;;;;;;;;;;;;;;-4.62;86.48;99352.69;5083895;28;19955;-65
2022/12/17 23:06:44;;;;;;;;;;;;;;;-4.68;86.66;99354.25;5083448;28;19939;-65
2022/12/17 23:09:11;;;;;;;;;;;;;;;-4.70;87.04;99348.28;5084061;28;20310;-65
2022/12/17 23:11:37;;;;;;;;;;;;;;;-4.70;86.99;99348.28;5067694;28;19967;-65
2022/12/17 23:14:04;;;;;;;;;;;;;;;-4.72;87.23;99335.13;5085334;28;20382;-65
2022/12/17 23:16:30;;;;;;;;;;;;;;;-4.74;87.16;99333.69;5066500;28;19928;-65
2022/12/17 23:18:58;;;;;;;;;;;;;;;-4.79;87.38;99328.91;5084690;28;19935;-65
2022/12/17 23:21:24;;;;;;;;;;;;;;;-4.72;87.62;99326.31;5066723;28;20039;-65
2022/12/17 23:23:50;;;;;;;;;;;;;;;-4.73;87.60;99322.00;5085745;28;19935;-65
2022/12/17 23:26:18;;;;;;;;;;;;;;;-4.72;87.54;99313.78;5084826;28;19932;-65
2022/12/17 23:28:44;;;;;;;;;;;;;;;-4.73;87.43;99312.13;5085274;28;19938;-65
2022/12/17 23:31:11;;;;;;;;;;;;;;;-4.70;87.53;99301.06;5065180;28;19928;-65
2022/12/17 23:33:37;;;;;;;;;;;;;;;-4.74;87.45;99296.31;5080479;28;20434;-65
2022/12/17 23:36:03;;;;;;;;;;;;;;;-4.75;87.42;99302.69;5086664;28;19932;-66
2022/12/17 23:38:32;;;;;;;;;;;;;;;-4.71;87.60;99294.09;5087284;28;20034;-66
2022/12/17 23:41:00;;;;;;;;;;;;;;;-4.71;87.40;99285.28;5084872;28;19928;-65
2022/12/17 23:43:29;;;;;;;;;;;;;;;-4.74;87.27;99285.66;5097752;28;19928;-66
2022/12/17 23:45:55;;;;;;;;;;;;;;;-4.75;87.15;99284.00;5085662;28;19935;-66
2022/12/17 23:48:21;;;;;;;;;;;;;;;-4.78;87.19;99273.69;5084070;28;19928;-65
2022/12/17 23:50:47;;;;;;;;;;;;;;;-4.80;87.18;99262.38;5068257;28;19928;-65
2022/12/17 23:53:12;;;;;;;;;;;;;;;-4.82;87.07;99267.91;5084444;28;19939;-66
2022/12/17 23:55:38;;;;;;;;;;;;;;;-4.87;87.41;99264.97;5085355;28;19973;-66
2022/12/17 23:58:04;;;;;;;;;;;;;;;-4.87;87.38;99251.63;5086605;28;19935;-65
